sensor_id;sensor_type;location;lat;lon;timestamp;P1;durP1;ratioP1;P2;durP2;ratioP2
74535;SDS011;63013;51.104;-115.370;2023-07-09T00:02:17;9.00;;;7.30;;
74535;SDS011;63013;51.104;-115.370;2023-07-09T00:04:44;8.20;;;7.00;;
74535;SDS011;63013;51.104;-115.370;2023-07-09T00:07:38;9.20;;;6.70;;
74535;SDS011;63013;51.104;-115.370;2023-07-09T00:10:14;9.10;;;7.10;;
74535;SDS011;63013;51.104;-115.370;2023-07-09T00:12:46;9.00;;;7.10;;
74535;SDS011;63013;51.104;-115.370;2023-07-09T00:15:15;7.70;;;6.60;;
74535;SDS011;63013;51.104;-115.370;2023-07-09T00:17:42;10.70;;;7.60;;
74535;SDS011;63013;51.104;-115.370;2023-07-09T00:20:16;8.80;;;7.50;;
74535;SDS011;63013;51.104;-115.370;2023-07-09T00:22:44;9.00;;;7.10;;
74535;SDS011;63013;51.104;-115.370;2023-07-09T00:25:19;9.30;;;7.10;;
74535;SDS011;63013;51.104;-115.370;2023-07-09T00:27:47;8.30;;;7.10;;
74535;SDS011;63013;51.104;-115.370;2023-07-09T00:30:23;8.80;;;7.20;;
74535;SDS011;63013;51.104;-115.370;2023-07-09T00:32:50;8.90;;;7.60;;
74535;SDS011;63013;51.104;-115.370;2023-07-09T00:35:19;9.30;;;6.90;;
74535;SDS011;63013;51.104;-115.370;2023-07-09T00:37:46;9.40;;;7.50;;
74535;SDS011;63013;51.104;-115.370;2023-07-09T00:40:21;10.20;;;7.90;;
74535;SDS011;63013;51.104;-115.370;2023-07-09T00:42:53;9.20;;;7.60;;
74535;SDS011;63013;51.104;-115.370;2023-07-09T00:45:26;9.60;;;7.70;;
74535;SDS011;63013;51.104;-115.370;2023-07-09T00:48:00;8.80;;;7.00;;
74535;SDS011;63013;51.104;-115.370;2023-07-09T00:50:34;9.70;;;7.80;;
74535;SDS011;63013;51.104;-115.370;2023-07-09T00:53:18;10.70;;;7.90;;
74535;SDS011;63013;51.104;-115.370;2023-07-09T00:56:02;9.90;;;8.00;;
74535;SDS011;63013;51.104;-115.370;2023-07-09T00:58:37;10.40;;;8.00;;
74535;SDS011;63013;51.104;-115.370;2023-07-09T01:01:09;9.60;;;8.10;;
74535;SDS011;63013;51.104;-115.370;2023-07-09T01:03:47;10.30;;;8.20;;
74535;SDS011;63013;51.104;-115.370;2023-07-09T01:06:28;9.70;;;8.20;;
74535;SDS011;63013;51.104;-115.370;2023-07-09T01:09:05;10.10;;;8.40;;
74535;SDS011;63013;51.104;-115.370;2023-07-09T01:11:34;10.60;;;8.50;;
74535;SDS011;63013;51.104;-115.370;2023-07-09T01:14:06;11.70;;;9.10;;
74535;SDS011;63013;51.104;-115.370;2023-07-09T01:16:39;10.70;;;8.40;;
74535;SDS011;63013;51.104;-115.370;2023-07-09T01:19:12;11.20;;;8.80;;
74535;SDS011;63013;51.104;-115.370;2023-07-09T01:21:42;11.10;;;8.70;;
74535;SDS011;63013;51.104;-115.370;2023-07-09T01:30:13;10.80;;;8.60;;
74535;SDS011;63013;51.104;-115.370;2023-07-09T01:32:45;12.90;;;8.90;;
74535;SDS011;63013;51.104;-115.370;2023-07-09T01:35:14;13.00;;;9.60;;
74535;SDS011;63013;51.104;-115.370;2023-07-09T01:37:45;12.70;;;9.80;;
74535;SDS011;63013;51.104;-115.370;2023-07-09T01:40:15;11.90;;;9.60;;
74535;SDS011;63013;51.104;-115.370;2023-07-09T01:42:45;13.50;;;9.40;;
74535;SDS011;63013;51.104;-115.370;2023-07-09T01:45:12;12.50;;;9.40;;
74535;SDS011;63013;51.104;-115.370;2023-07-09T01:47:41;11.90;;;9.70;;
74535;SDS011;63013;51.104;-115.370;2023-07-09T01:50:10;11.70;;;9.20;;
74535;SDS011;63013;51.104;-115.370;2023-07-09T01:52:40;13.30;;;9.10;;
74535;SDS011;63013;51.104;-115.370;2023-07-09T01:55:13;13.20;;;10.00;;
74535;SDS011;63013;51.104;-115.370;2023-07-09T01:57:43;13.10;;;9.80;;
74535;SDS011;63013;51.104;-115.370;2023-07-09T02:00:15;12.40;;;9.70;;
74535;SDS011;63013;51.104;-115.370;2023-07-09T02:02:44;14.50;;;9.90;;
74535;SDS011;63013;51.104;-115.370;2023-07-09T02:05:17;12.40;;;9.50;;
74535;SDS011;63013;51.104;-115.370;2023-07-09T02:07:46;12.10;;;9.70;;
74535;SDS011;63013;51.104;-115.370;2023-07-09T02:10:16;12.80;;;9.70;;
74535;SDS011;63013;51.104;-115.370;2023-07-09T02:12:44;13.70;;;10.00;;
74535;SDS011;63013;51.104;-115.370;2023-07-09T02:15:11;12.10;;;10.00;;
74535;SDS011;63013;51.104;-115.370;2023-07-09T02:17:39;12.90;;;9.80;;
74535;SDS011;63013;51.104;-115.370;2023-07-09T02:20:07;13.90;;;10.10;;
74535;SDS011;63013;51.104;-115.370;2023-07-09T02:22:37;12.70;;;10.60;;
74535;SDS011;63013;51.104;-115.370;2023-07-09T02:25:05;13.10;;;9.80;;
74535;SDS011;63013;51.104;-115.370;2023-07-09T02:27:34;13.60;;;10.40;;
74535;SDS011;63013;51.104;-115.370;2023-07-09T02:30:04;13.80;;;10.40;;
74535;SDS011;63013;51.104;-115.370;2023-07-09T02:32:32;12.40;;;10.00;;
74535;SDS011;63013;51.104;-115.370;2023-07-09T02:34:59;14.10;;;10.20;;
74535;SDS011;63013;51.104;-115.370;2023-07-09T02:37:26;12.50;;;10.10;;
74535;SDS011;63013;51.104;-115.370;2023-07-09T02:39:54;12.10;;;10.30;;
74535;SDS011;63013;51.104;-115.370;2023-07-09T02:42:22;13.90;;;10.80;;
74535;SDS011;63013;51.104;-115.370;2023-07-09T02:44:49;12.90;;;10.20;;
74535;SDS011;63013;51.104;-115.370;2023-07-09T02:47:18;12.40;;;10.20;;
74535;SDS011;63013;51.104;-115.370;2023-07-09T02:49:45;13.30;;;10.10;;
74535;SDS011;63013;51.104;-115.370;2023-07-09T02:52:12;12.20;;;10.40;;
74535;SDS011;63013;51.104;-115.370;2023-07-09T02:54:39;13.00;;;10.50;;
74535;SDS011;63013;51.104;-115.370;2023-07-09T02:57:07;13.70;;;10.40;;
74535;SDS011;63013;51.104;-115.370;2023-07-09T02:59:34;13.60;;;10.30;;
74535;SDS011;63013;51.104;-115.370;2023-07-09T03:02:01;11.80;;;10.10;;
74535;SDS011;63013;51.104;-115.370;2023-07-09T03:04:29;12.70;;;10.40;;
74535;SDS011;63013;51.104;-115.370;2023-07-09T03:06:57;12.60;;;10.10;;
74535;SDS011;63013;51.104;-115.370;2023-07-09T03:09:25;13.10;;;10.00;;
74535;SDS011;63013;51.104;-115.370;2023-07-09T03:11:53;12.60;;;10.30;;
74535;SDS011;63013;51.104;-115.370;2023-07-09T03:14:21;13.80;;;10.40;;
74535;SDS011;63013;51.104;-115.370;2023-07-09T03:16:48;16.00;;;11.10;;
74535;SDS011;63013;51.104;-115.370;2023-07-09T03:19:15;12.60;;;10.40;;
74535;SDS011;63013;51.104;-115.370;2023-07-09T03:21:43;12.70;;;10.80;;
74535;SDS011;63013;51.104;-115.370;2023-07-09T03:24:10;13.60;;;10.70;;
74535;SDS011;63013;51.104;-115.370;2023-07-09T03:26:41;12.90;;;10.20;;
74535;SDS011;63013;51.104;-115.370;2023-07-09T03:29:08;12.40;;;10.00;;
74535;SDS011;63013;51.104;-115.370;2023-07-09T03:31:35;12.90;;;10.50;;
74535;SDS011;63013;51.104;-115.370;2023-07-09T03:34:02;12.50;;;10.20;;
74535;SDS011;63013;51.104;-115.370;2023-07-09T03:36:30;13.80;;;10.80;;
74535;SDS011;63013;51.104;-115.370;2023-07-09T03:38:57;13.30;;;10.40;;
74535;SDS011;63013;51.104;-115.370;2023-07-09T03:41:24;13.00;;;10.40;;
74535;SDS011;63013;51.104;-115.370;2023-07-09T03:43:52;14.80;;;10.60;;
74535;SDS011;63013;51.104;-115.370;2023-07-09T03:46:19;12.60;;;10.90;;
74535;SDS011;63013;51.104;-115.370;2023-07-09T03:48:46;13.90;;;10.60;;
74535;SDS011;63013;51.104;-115.370;2023-07-09T03:51:16;12.40;;;10.30;;
74535;SDS011;63013;51.104;-115.370;2023-07-09T03:53:44;13.40;;;10.90;;
74535;SDS011;63013;51.104;-115.370;2023-07-09T03:56:11;14.30;;;10.80;;
74535;SDS011;63013;51.104;-115.370;2023-07-09T03:58:38;14.00;;;10.50;;
74535;SDS011;63013;51.104;-115.370;2023-07-09T04:01:05;13.90;;;10.60;;
74535;SDS011;63013;51.104;-115.370;2023-07-09T04:03:33;11.80;;;10.00;;
74535;SDS011;63013;51.104;-115.370;2023-07-09T04:05:59;13.20;;;10.30;;
74535;SDS011;63013;51.104;-115.370;2023-07-09T04:08:26;14.20;;;10.70;;
74535;SDS011;63013;51.104;-115.370;2023-07-09T04:10:54;12.40;;;10.30;;
74535;SDS011;63013;51.104;-115.370;2023-07-09T04:13:25;12.10;;;9.80;;
74535;SDS011;63013;51.104;-115.370;2023-07-09T04:15:55;12.40;;;10.40;;
74535;SDS011;63013;51.104;-115.370;2023-07-09T04:18:23;13.00;;;10.90;;
74535;SDS011;63013;51.104;-115.370;2023-07-09T04:20:51;12.90;;;10.30;;
74535;SDS011;63013;51.104;-115.370;2023-07-09T04:23:19;13.30;;;10.90;;
74535;SDS011;63013;51.104;-115.370;2023-07-09T04:25:47;14.10;;;9.90;;
74535;SDS011;63013;51.104;-115.370;2023-07-09T04:28:14;14.90;;;10.80;;
74535;SDS011;63013;51.104;-115.370;2023-07-09T04:30:51;14.20;;;11.60;;
74535;SDS011;63013;51.104;-115.370;2023-07-09T04:33:20;14.00;;;10.90;;
74535;SDS011;63013;51.104;-115.370;2023-07-09T04:35:47;13.90;;;10.10;;
74535;SDS011;63013;51.104;-115.370;2023-07-09T04:38:15;13.70;;;10.50;;
74535;SDS011;63013;51.104;-115.370;2023-07-09T04:40:43;13.70;;;11.00;;
74535;SDS011;63013;51.104;-115.370;2023-07-09T04:43:10;14.10;;;11.30;;
74535;SDS011;63013;51.104;-115.370;2023-07-09T04:45:37;13.00;;;10.30;;
74535;SDS011;63013;51.104;-115.370;2023-07-09T04:48:05;14.30;;;11.00;;
74535;SDS011;63013;51.104;-115.370;2023-07-09T04:50:33;13.80;;;10.80;;
74535;SDS011;63013;51.104;-115.370;2023-07-09T04:53:00;13.30;;;10.40;;
74535;SDS011;63013;51.104;-115.370;2023-07-09T04:55:28;12.60;;;10.90;;
74535;SDS011;63013;51.104;-115.370;2023-07-09T04:57:55;15.60;;;12.30;;
74535;SDS011;63013;51.104;-115.370;2023-07-09T05:00:22;15.50;;;12.50;;
74535;SDS011;63013;51.104;-115.370;2023-07-09T05:02:49;15.20;;;12.00;;
74535;SDS011;63013;51.104;-115.370;2023-07-09T05:05:17;12.90;;;11.00;;
74535;SDS011;63013;51.104;-115.370;2023-07-09T05:07:44;13.20;;;10.90;;
74535;SDS011;63013;51.104;-115.370;2023-07-09T05:10:11;14.30;;;11.30;;
74535;SDS011;63013;51.104;-115.370;2023-07-09T05:12:50;14.60;;;11.20;;
74535;SDS011;63013;51.104;-115.370;2023-07-09T05:15:19;13.50;;;10.60;;
74535;SDS011;63013;51.104;-115.370;2023-07-09T05:17:47;13.00;;;10.40;;
74535;SDS011;63013;51.104;-115.370;2023-07-09T05:20:15;14.00;;;10.70;;
74535;SDS011;63013;51.104;-115.370;2023-07-09T05:22:42;13.40;;;10.70;;
74535;SDS011;63013;51.104;-115.370;2023-07-09T05:25:09;13.40;;;10.60;;
74535;SDS011;63013;51.104;-115.370;2023-07-09T05:27:36;13.80;;;10.80;;
74535;SDS011;63013;51.104;-115.370;2023-07-09T05:30:04;12.80;;;10.90;;
74535;SDS011;63013;51.104;-115.370;2023-07-09T05:32:32;12.60;;;10.90;;
74535;SDS011;63013;51.104;-115.370;2023-07-09T05:34:59;13.40;;;10.30;;
74535;SDS011;63013;51.104;-115.370;2023-07-09T05:37:26;13.00;;;10.20;;
74535;SDS011;63013;51.104;-115.370;2023-07-09T05:39:53;15.00;;;10.90;;
74535;SDS011;63013;51.104;-115.370;2023-07-09T05:42:20;12.90;;;9.90;;
74535;SDS011;63013;51.104;-115.370;2023-07-09T05:44:47;12.70;;;10.20;;
74535;SDS011;63013;51.104;-115.370;2023-07-09T05:47:14;13.90;;;10.30;;
74535;SDS011;63013;51.104;-115.370;2023-07-09T05:49:41;12.30;;;9.90;;
74535;SDS011;63013;51.104;-115.370;2023-07-09T05:52:09;12.10;;;10.40;;
74535;SDS011;63013;51.104;-115.370;2023-07-09T05:54:36;11.90;;;9.90;;
74535;SDS011;63013;51.104;-115.370;2023-07-09T05:57:03;12.00;;;10.20;;
74535;SDS011;63013;51.104;-115.370;2023-07-09T05:59:30;11.70;;;9.80;;
74535;SDS011;63013;51.104;-115.370;2023-07-09T06:01:57;11.90;;;10.20;;
74535;SDS011;63013;51.104;-115.370;2023-07-09T06:04:26;11.80;;;9.60;;
74535;SDS011;63013;51.104;-115.370;2023-07-09T06:06:53;12.40;;;9.80;;
74535;SDS011;63013;51.104;-115.370;2023-07-09T06:09:20;12.90;;;10.60;;
74535;SDS011;63013;51.104;-115.370;2023-07-09T06:11:47;11.90;;;9.70;;
74535;SDS011;63013;51.104;-115.370;2023-07-09T06:14:14;12.00;;;9.70;;
74535;SDS011;63013;51.104;-115.370;2023-07-09T06:16:43;13.20;;;10.20;;
74535;SDS011;63013;51.104;-115.370;2023-07-09T06:19:10;13.20;;;10.20;;
74535;SDS011;63013;51.104;-115.370;2023-07-09T06:21:38;13.10;;;10.40;;
74535;SDS011;63013;51.104;-115.370;2023-07-09T06:24:08;12.00;;;9.90;;
74535;SDS011;63013;51.104;-115.370;2023-07-09T06:26:36;12.10;;;10.10;;
74535;SDS011;63013;51.104;-115.370;2023-07-09T06:29:03;12.40;;;10.00;;
74535;SDS011;63013;51.104;-115.370;2023-07-09T06:31:30;13.50;;;10.20;;
74535;SDS011;63013;51.104;-115.370;2023-07-09T06:33:57;12.30;;;9.90;;
74535;SDS011;63013;51.104;-115.370;2023-07-09T06:36:24;13.10;;;10.10;;
74535;SDS011;63013;51.104;-115.370;2023-07-09T06:38:51;11.50;;;9.40;;
74535;SDS011;63013;51.104;-115.370;2023-07-09T06:41:19;13.00;;;9.50;;
74535;SDS011;63013;51.104;-115.370;2023-07-09T06:43:46;11.50;;;9.60;;
74535;SDS011;63013;51.104;-115.370;2023-07-09T06:46:14;10.90;;;9.30;;
74535;SDS011;63013;51.104;-115.370;2023-07-09T06:48:42;11.80;;;9.60;;
74535;SDS011;63013;51.104;-115.370;2023-07-09T06:51:09;11.60;;;9.60;;
74535;SDS011;63013;51.104;-115.370;2023-07-09T06:53:36;12.00;;;9.90;;
74535;SDS011;63013;51.104;-115.370;2023-07-09T06:56:04;11.60;;;9.80;;
74535;SDS011;63013;51.104;-115.370;2023-07-09T06:58:32;11.20;;;9.90;;
74535;SDS011;63013;51.104;-115.370;2023-07-09T07:01:04;12.00;;;9.50;;
74535;SDS011;63013;51.104;-115.370;2023-07-09T07:03:32;11.90;;;9.50;;
74535;SDS011;63013;51.104;-115.370;2023-07-09T07:06:00;12.50;;;10.10;;
74535;SDS011;63013;51.104;-115.370;2023-07-09T07:08:28;11.60;;;9.00;;
74535;SDS011;63013;51.104;-115.370;2023-07-09T07:10:57;11.80;;;9.60;;
74535;SDS011;63013;51.104;-115.370;2023-07-09T07:13:34;11.50;;;8.60;;
74535;SDS011;63013;51.104;-115.370;2023-07-09T07:16:04;13.00;;;10.00;;
74535;SDS011;63013;51.104;-115.370;2023-07-09T07:18:33;12.30;;;10.00;;
74535;SDS011;63013;51.104;-115.370;2023-07-09T07:21:00;12.40;;;9.60;;
74535;SDS011;63013;51.104;-115.370;2023-07-09T07:23:28;12.20;;;9.50;;
74535;SDS011;63013;51.104;-115.370;2023-07-09T07:25:55;11.90;;;9.90;;
74535;SDS011;63013;51.104;-115.370;2023-07-09T07:28:23;11.90;;;9.90;;
74535;SDS011;63013;51.104;-115.370;2023-07-09T07:31:07;13.20;;;10.10;;
74535;SDS011;63013;51.104;-115.370;2023-07-09T07:33:35;13.10;;;10.30;;
74535;SDS011;63013;51.104;-115.370;2023-07-09T07:36:05;13.20;;;10.60;;
74535;SDS011;63013;51.104;-115.370;2023-07-09T07:38:34;11.40;;;9.50;;
74535;SDS011;63013;51.104;-115.370;2023-07-09T07:41:01;11.50;;;9.40;;
74535;SDS011;63013;51.104;-115.370;2023-07-09T07:43:29;12.10;;;9.30;;
74535;SDS011;63013;51.104;-115.370;2023-07-09T07:45:56;11.60;;;9.70;;
74535;SDS011;63013;51.104;-115.370;2023-07-09T07:48:23;11.60;;;9.80;;
74535;SDS011;63013;51.104;-115.370;2023-07-09T07:50:50;11.20;;;9.50;;
74535;SDS011;63013;51.104;-115.370;2023-07-09T07:53:17;11.50;;;9.10;;
74535;SDS011;63013;51.104;-115.370;2023-07-09T07:55:44;11.80;;;9.90;;
74535;SDS011;63013;51.104;-115.370;2023-07-09T07:58:13;12.10;;;10.00;;
74535;SDS011;63013;51.104;-115.370;2023-07-09T08:00:40;11.20;;;9.20;;
74535;SDS011;63013;51.104;-115.370;2023-07-09T08:03:07;12.20;;;9.70;;
74535;SDS011;63013;51.104;-115.370;2023-07-09T08:05:34;12.80;;;9.70;;
74535;SDS011;63013;51.104;-115.370;2023-07-09T08:08:01;12.00;;;9.80;;
74535;SDS011;63013;51.104;-115.370;2023-07-09T08:10:29;11.40;;;9.70;;
74535;SDS011;63013;51.104;-115.370;2023-07-09T08:12:56;11.80;;;10.20;;
74535;SDS011;63013;51.104;-115.370;2023-07-09T08:15:24;11.40;;;9.80;;
74535;SDS011;63013;51.104;-115.370;2023-07-09T08:17:51;11.10;;;9.10;;
74535;SDS011;63013;51.104;-115.370;2023-07-09T08:20:18;11.40;;;9.50;;
74535;SDS011;63013;51.104;-115.370;2023-07-09T08:22:45;10.20;;;8.40;;
74535;SDS011;63013;51.104;-115.370;2023-07-09T08:25:12;12.20;;;9.40;;
74535;SDS011;63013;51.104;-115.370;2023-07-09T08:27:39;11.80;;;9.20;;
74535;SDS011;63013;51.104;-115.370;2023-07-09T08:30:08;11.10;;;9.70;;
74535;SDS011;63013;51.104;-115.370;2023-07-09T08:32:35;13.00;;;10.10;;
74535;SDS011;63013;51.104;-115.370;2023-07-09T08:35:02;11.10;;;9.50;;
74535;SDS011;63013;51.104;-115.370;2023-07-09T08:37:29;12.20;;;9.20;;
74535;SDS011;63013;51.104;-115.370;2023-07-09T08:39:56;11.10;;;8.90;;
74535;SDS011;63013;51.104;-115.370;2023-07-09T08:42:31;11.40;;;8.90;;
74535;SDS011;63013;51.104;-115.370;2023-07-09T08:50:57;11.20;;;9.00;;
74535;SDS011;63013;51.104;-115.370;2023-07-09T08:53:38;10.50;;;8.80;;
74535;SDS011;63013;51.104;-115.370;2023-07-09T08:56:13;11.30;;;9.20;;
74535;SDS011;63013;51.104;-115.370;2023-07-09T08:58:42;11.00;;;9.30;;
74535;SDS011;63013;51.104;-115.370;2023-07-09T09:01:37;10.10;;;8.50;;
74535;SDS011;63013;51.104;-115.370;2023-07-09T09:04:26;11.10;;;9.50;;
74535;SDS011;63013;51.104;-115.370;2023-07-09T09:10:00;11.10;;;9.00;;
74535;SDS011;63013;51.104;-115.370;2023-07-09T09:12:38;11.40;;;9.20;;
74535;SDS011;63013;51.104;-115.370;2023-07-09T09:15:19;11.20;;;8.90;;
74535;SDS011;63013;51.104;-115.370;2023-07-09T09:17:51;12.30;;;9.30;;
74535;SDS011;63013;51.104;-115.370;2023-07-09T09:20:23;11.40;;;8.90;;
74535;SDS011;63013;51.104;-115.370;2023-07-09T09:25:48;10.00;;;8.80;;
74535;SDS011;63013;51.104;-115.370;2023-07-09T09:28:20;10.40;;;8.70;;
74535;SDS011;63013;51.104;-115.370;2023-07-09T09:30:48;12.00;;;9.40;;
74535;SDS011;63013;51.104;-115.370;2023-07-09T09:33:17;12.10;;;9.10;;
74535;SDS011;63013;51.104;-115.370;2023-07-09T09:35:45;11.30;;;9.00;;
74535;SDS011;63013;51.104;-115.370;2023-07-09T09:38:19;9.70;;;8.40;;
74535;SDS011;63013;51.104;-115.370;2023-07-09T09:40:48;11.50;;;9.10;;
74535;SDS011;63013;51.104;-115.370;2023-07-09T09:43:20;11.70;;;9.30;;
74535;SDS011;63013;51.104;-115.370;2023-07-09T09:45:50;10.90;;;9.20;;
74535;SDS011;63013;51.104;-115.370;2023-07-09T09:48:27;11.50;;;9.60;;
74535;SDS011;63013;51.104;-115.370;2023-07-09T09:50:59;10.70;;;8.50;;
74535;SDS011;63013;51.104;-115.370;2023-07-09T09:53:38;12.10;;;8.70;;
74535;SDS011;63013;51.104;-115.370;2023-07-09T09:56:35;10.20;;;8.50;;
74535;SDS011;63013;51.104;-115.370;2023-07-09T09:59:04;10.90;;;9.30;;
74535;SDS011;63013;51.104;-115.370;2023-07-09T10:01:34;9.70;;;8.40;;
74535;SDS011;63013;51.104;-115.370;2023-07-09T10:04:04;10.40;;;8.60;;
74535;SDS011;63013;51.104;-115.370;2023-07-09T10:20:47;10.20;;;8.50;;
74535;SDS011;63013;51.104;-115.370;2023-07-09T10:23:36;10.70;;;8.60;;
74535;SDS011;63013;51.104;-115.370;2023-07-09T10:26:22;10.90;;;9.00;;
74535;SDS011;63013;51.104;-115.370;2023-07-09T10:31:59;11.30;;;8.70;;
74535;SDS011;63013;51.104;-115.370;2023-07-09T10:40:45;11.00;;;8.50;;
74535;SDS011;63013;51.104;-115.370;2023-07-09T10:43:48;11.10;;;9.00;;
74535;SDS011;63013;51.104;-115.370;2023-07-09T10:46:41;11.70;;;8.70;;
74535;SDS011;63013;51.104;-115.370;2023-07-09T10:49:15;11.30;;;8.80;;
74535;SDS011;63013;51.104;-115.370;2023-07-09T10:51:48;10.20;;;8.60;;
74535;SDS011;63013;51.104;-115.370;2023-07-09T10:54:41;10.90;;;9.10;;
74535;SDS011;63013;51.104;-115.370;2023-07-09T10:57:34;10.20;;;8.40;;
74535;SDS011;63013;51.104;-115.370;2023-07-09T11:00:22;10.70;;;8.20;;
74535;SDS011;63013;51.104;-115.370;2023-07-09T11:05:48;12.10;;;8.30;;
74535;SDS011;63013;51.104;-115.370;2023-07-09T11:08:38;9.90;;;8.20;;
74535;SDS011;63013;51.104;-115.370;2023-07-09T11:11:22;10.30;;;8.60;;
74535;SDS011;63013;51.104;-115.370;2023-07-09T11:14:04;11.20;;;8.50;;
74535;SDS011;63013;51.104;-115.370;2023-07-09T11:16:41;10.40;;;8.40;;
74535;SDS011;63013;51.104;-115.370;2023-07-09T11:19:17;11.00;;;8.70;;
74535;SDS011;63013;51.104;-115.370;2023-07-09T11:22:39;10.30;;;8.70;;
74535;SDS011;63013;51.104;-115.370;2023-07-09T11:28:02;10.30;;;8.40;;
74535;SDS011;63013;51.104;-115.370;2023-07-09T11:30:33;9.90;;;8.20;;
74535;SDS011;63013;51.104;-115.370;2023-07-09T11:33:20;9.80;;;8.20;;
74535;SDS011;63013;51.104;-115.370;2023-07-09T11:36:09;10.70;;;8.40;;
74535;SDS011;63013;51.104;-115.370;2023-07-09T11:38:48;10.00;;;8.30;;
74535;SDS011;63013;51.104;-115.370;2023-07-09T11:41:40;9.50;;;7.80;;
74535;SDS011;63013;51.104;-115.370;2023-07-09T11:44:27;9.80;;;8.00;;
74535;SDS011;63013;51.104;-115.370;2023-07-09T11:52:25;9.80;;;7.80;;
74535;SDS011;63013;51.104;-115.370;2023-07-09T11:55:02;10.30;;;8.00;;
74535;SDS011;63013;51.104;-115.370;2023-07-09T11:57:54;10.10;;;8.10;;
74535;SDS011;63013;51.104;-115.370;2023-07-09T12:00:23;10.30;;;8.20;;
74535;SDS011;63013;51.104;-115.370;2023-07-09T12:02:52;10.00;;;8.00;;
74535;SDS011;63013;51.104;-115.370;2023-07-09T12:05:22;10.50;;;7.70;;
74535;SDS011;63013;51.104;-115.370;2023-07-09T12:07:54;11.10;;;8.20;;
74535;SDS011;63013;51.104;-115.370;2023-07-09T12:10:32;8.90;;;7.40;;
74535;SDS011;63013;51.104;-115.370;2023-07-09T12:13:01;10.10;;;8.00;;
74535;SDS011;63013;51.104;-115.370;2023-07-09T12:15:30;11.00;;;8.30;;
74535;SDS011;63013;51.104;-115.370;2023-07-09T12:18:00;9.80;;;8.50;;
74535;SDS011;63013;51.104;-115.370;2023-07-09T12:20:34;9.50;;;7.70;;
74535;SDS011;63013;51.104;-115.370;2023-07-09T12:23:31;9.70;;;8.10;;
74535;SDS011;63013;51.104;-115.370;2023-07-09T12:26:01;9.00;;;7.40;;
74535;SDS011;63013;51.104;-115.370;2023-07-09T12:28:30;9.60;;;8.00;;
74535;SDS011;63013;51.104;-115.370;2023-07-09T12:30:56;9.90;;;8.10;;
74535;SDS011;63013;51.104;-115.370;2023-07-09T12:33:25;9.80;;;8.00;;
74535;SDS011;63013;51.104;-115.370;2023-07-09T12:36:06;10.10;;;8.00;;
74535;SDS011;63013;51.104;-115.370;2023-07-09T12:38:44;10.50;;;8.30;;
74535;SDS011;63013;51.104;-115.370;2023-07-09T12:41:35;9.00;;;7.40;;
74535;SDS011;63013;51.104;-115.370;2023-07-09T12:44:15;9.60;;;8.10;;
74535;SDS011;63013;51.104;-115.370;2023-07-09T12:46:48;8.80;;;7.10;;
74535;SDS011;63013;51.104;-115.370;2023-07-09T12:51:47;9.90;;;8.20;;
74535;SDS011;63013;51.104;-115.370;2023-07-09T12:54:16;9.10;;;7.70;;
74535;SDS011;63013;51.104;-115.370;2023-07-09T12:56:49;10.30;;;7.80;;
74535;SDS011;63013;51.104;-115.370;2023-07-09T12:59:24;10.30;;;7.50;;
74535;SDS011;63013;51.104;-115.370;2023-07-09T13:02:14;9.70;;;7.80;;
74535;SDS011;63013;51.104;-115.370;2023-07-09T13:04:42;9.70;;;7.30;;
74535;SDS011;63013;51.104;-115.370;2023-07-09T13:07:26;8.90;;;7.00;;
74535;SDS011;63013;51.104;-115.370;2023-07-09T13:10:05;9.30;;;7.50;;
74535;SDS011;63013;51.104;-115.370;2023-07-09T13:12:46;10.00;;;7.40;;
74535;SDS011;63013;51.104;-115.370;2023-07-09T13:15:44;9.40;;;7.50;;
74535;SDS011;63013;51.104;-115.370;2023-07-09T13:18:24;8.90;;;7.50;;
74535;SDS011;63013;51.104;-115.370;2023-07-09T13:20:54;9.40;;;7.80;;
74535;SDS011;63013;51.104;-115.370;2023-07-09T13:23:29;8.40;;;7.10;;
74535;SDS011;63013;51.104;-115.370;2023-07-09T13:25:56;8.50;;;7.10;;
74535;SDS011;63013;51.104;-115.370;2023-07-09T13:28:31;9.50;;;7.80;;
74535;SDS011;63013;51.104;-115.370;2023-07-09T13:31:01;9.30;;;7.50;;
74535;SDS011;63013;51.104;-115.370;2023-07-09T13:33:37;10.30;;;7.60;;
74535;SDS011;63013;51.104;-115.370;2023-07-09T13:36:05;9.40;;;7.50;;
74535;SDS011;63013;51.104;-115.370;2023-07-09T13:38:32;9.30;;;7.30;;
74535;SDS011;63013;51.104;-115.370;2023-07-09T13:41:08;9.20;;;8.00;;
74535;SDS011;63013;51.104;-115.370;2023-07-09T13:43:45;9.90;;;7.80;;
74535;SDS011;63013;51.104;-115.370;2023-07-09T13:46:13;8.90;;;7.20;;
74535;SDS011;63013;51.104;-115.370;2023-07-09T13:48:43;8.80;;;7.30;;
74535;SDS011;63013;51.104;-115.370;2023-07-09T13:51:22;9.30;;;7.20;;
74535;SDS011;63013;51.104;-115.370;2023-07-09T13:53:53;10.00;;;7.30;;
74535;SDS011;63013;51.104;-115.370;2023-07-09T13:56:21;9.50;;;7.60;;
74535;SDS011;63013;51.104;-115.370;2023-07-09T13:58:49;8.70;;;7.20;;
74535;SDS011;63013;51.104;-115.370;2023-07-09T14:01:22;9.10;;;7.30;;
74535;SDS011;63013;51.104;-115.370;2023-07-09T14:03:51;9.30;;;7.40;;
74535;SDS011;63013;51.104;-115.370;2023-07-09T14:06:24;9.10;;;7.40;;
74535;SDS011;63013;51.104;-115.370;2023-07-09T14:08:51;9.90;;;7.40;;
74535;SDS011;63013;51.104;-115.370;2023-07-09T14:11:18;8.70;;;7.20;;
74535;SDS011;63013;51.104;-115.370;2023-07-09T14:13:47;10.30;;;7.70;;
74535;SDS011;63013;51.104;-115.370;2023-07-09T14:16:14;9.70;;;7.30;;
74535;SDS011;63013;51.104;-115.370;2023-07-09T14:18:42;9.70;;;7.50;;
74535;SDS011;63013;51.104;-115.370;2023-07-09T14:21:23;9.80;;;7.60;;
74535;SDS011;63013;51.104;-115.370;2023-07-09T14:23:54;8.70;;;7.00;;
74535;SDS011;63013;51.104;-115.370;2023-07-09T14:26:21;10.50;;;7.40;;
74535;SDS011;63013;51.104;-115.370;2023-07-09T14:28:48;8.20;;;7.00;;
74535;SDS011;63013;51.104;-115.370;2023-07-09T14:31:28;9.20;;;7.40;;
74535;SDS011;63013;51.104;-115.370;2023-07-09T14:34:24;9.10;;;6.90;;
74535;SDS011;63013;51.104;-115.370;2023-07-09T14:36:57;8.80;;;6.90;;
74535;SDS011;63013;51.104;-115.370;2023-07-09T14:39:27;8.70;;;7.20;;
74535;SDS011;63013;51.104;-115.370;2023-07-09T14:41:54;8.90;;;7.10;;
74535;SDS011;63013;51.104;-115.370;2023-07-09T14:44:30;10.00;;;7.40;;
74535;SDS011;63013;51.104;-115.370;2023-07-09T14:47:00;9.20;;;7.30;;
74535;SDS011;63013;51.104;-115.370;2023-07-09T14:49:28;8.30;;;7.00;;
74535;SDS011;63013;51.104;-115.370;2023-07-09T14:51:55;8.40;;;6.70;;
74535;SDS011;63013;51.104;-115.370;2023-07-09T14:54:30;8.90;;;7.20;;
74535;SDS011;63013;51.104;-115.370;2023-07-09T14:56:58;8.80;;;7.20;;
74535;SDS011;63013;51.104;-115.370;2023-07-09T14:59:25;9.30;;;7.50;;
74535;SDS011;63013;51.104;-115.370;2023-07-09T15:01:53;9.10;;;7.10;;
74535;SDS011;63013;51.104;-115.370;2023-07-09T15:06:55;9.00;;;7.30;;
74535;SDS011;63013;51.104;-115.370;2023-07-09T15:09:25;9.20;;;7.10;;
74535;SDS011;63013;51.104;-115.370;2023-07-09T15:11:57;10.20;;;7.60;;
74535;SDS011;63013;51.104;-115.370;2023-07-09T15:14:26;9.20;;;6.90;;
74535;SDS011;63013;51.104;-115.370;2023-07-09T15:16:54;10.60;;;7.20;;
74535;SDS011;63013;51.104;-115.370;2023-07-09T15:19:22;8.00;;;7.10;;